sensor_id;sensor_type;location;lat;lon;timestamp;pressure;altitude;pressure_sealevel;temperature
72278;BMP280;61204;49.980;8.358;2023-06-14T00:01:06;100279.06;;;18.83
72278;BMP280;61204;49.980;8.358;2023-06-14T00:03:32;100275.75;;;18.66
72278;BMP280;61204;49.980;8.358;2023-06-14T00:06:00;100281.91;;;18.63
72278;BMP280;61204;49.980;8.358;2023-06-14T00:08:25;100272.03;;;18.58
72278;BMP280;61204;49.980;8.358;2023-06-14T00:10:51;100277.53;;;18.56
72278;BMP280;61204;49.980;8.358;2023-06-14T00:13:16;100279.41;;;18.49
72278;BMP280;61204;49.980;8.358;2023-06-14T00:15:44;100276.41;;;18.43
72278;BMP280;61204;49.980;8.358;2023-06-14T00:18:11;100287.97;;;18.35
72278;BMP280;61204;49.980;8.358;2023-06-14T00:20:36;100281.94;;;18.41
72278;BMP280;61204;49.980;8.358;2023-06-14T00:23:02;100289.97;;;18.33
72278;BMP280;61204;49.980;8.358;2023-06-14T00:25:27;100281.66;;;18.33
72278;BMP280;61204;49.980;8.358;2023-06-14T00:27:54;100289.56;;;18.21
72278;BMP280;61204;49.980;8.358;2023-06-14T00:30:20;100283.63;;;18.08
72278;BMP280;61204;49.980;8.358;2023-06-14T00:32:46;100287.47;;;17.99
72278;BMP280;61204;49.980;8.358;2023-06-14T00:35:15;100290.97;;;18.00
72278;BMP280;61204;49.980;8.358;2023-06-14T00:37:43;100296.38;;;17.96
72278;BMP280;61204;49.980;8.358;2023-06-14T00:40:08;100293.78;;;18.02
72278;BMP280;61204;49.980;8.358;2023-06-14T00:42:34;100286.19;;;18.02
72278;BMP280;61204;49.980;8.358;2023-06-14T00:45:00;100295.78;;;17.99
72278;BMP280;61204;49.980;8.358;2023-06-14T00:47:26;100292.59;;;17.87
72278;BMP280;61204;49.980;8.358;2023-06-14T00:49:52;100286.06;;;17.78
72278;BMP280;61204;49.980;8.358;2023-06-14T00:52:22;100282.34;;;17.72
72278;BMP280;61204;49.980;8.358;2023-06-14T00:54:51;100290.63;;;17.70
72278;BMP280;61204;49.980;8.358;2023-06-14T00:57:17;100298.22;;;17.69
72278;BMP280;61204;49.980;8.358;2023-06-14T00:59:49;100298.94;;;17.70
72278;BMP280;61204;49.980;8.358;2023-06-14T01:02:15;100298.97;;;17.72
72278;BMP280;61204;49.980;8.358;2023-06-14T01:04:45;100298.47;;;17.58
72278;BMP280;61204;49.980;8.358;2023-06-14T01:07:20;100303.72;;;17.49
72278;BMP280;61204;49.980;8.358;2023-06-14T01:10:04;100296.53;;;17.42
72278;BMP280;61204;49.980;8.358;2023-06-14T01:15:45;100299.78;;;17.37
72278;BMP280;61204;49.980;8.358;2023-06-14T01:18:12;100295.91;;;17.26
72278;BMP280;61204;49.980;8.358;2023-06-14T01:20:45;100294.41;;;17.23
72278;BMP280;61204;49.980;8.358;2023-06-14T01:23:19;100295.69;;;17.20
72278;BMP280;61204;49.980;8.358;2023-06-14T01:25:47;100299.75;;;17.17
72278;BMP280;61204;49.980;8.358;2023-06-14T01:28:18;100298.16;;;17.12
72278;BMP280;61204;49.980;8.358;2023-06-14T01:30:47;100304.50;;;17.14
72278;BMP280;61204;49.980;8.358;2023-06-14T01:33:19;100302.81;;;17.07
72278;BMP280;61204;49.980;8.358;2023-06-14T01:35:52;100305.06;;;17.11
72278;BMP280;61204;49.980;8.358;2023-06-14T01:38:20;100300.53;;;17.02
72278;BMP280;61204;49.980;8.358;2023-06-14T01:40:52;100302.06;;;16.87
72278;BMP280;61204;49.980;8.358;2023-06-14T01:43:21;100306.63;;;16.80
72278;BMP280;61204;49.980;8.358;2023-06-14T01:45:49;100303.78;;;16.78
72278;BMP280;61204;49.980;8.358;2023-06-14T01:48:17;100305.69;;;16.74
72278;BMP280;61204;49.980;8.358;2023-06-14T01:50:44;100316.66;;;16.72
72278;BMP280;61204;49.980;8.358;2023-06-14T01:53:15;100307.47;;;16.67
72278;BMP280;61204;49.980;8.358;2023-06-14T01:55:41;100306.38;;;16.74
72278;BMP280;61204;49.980;8.358;2023-06-14T01:58:09;100307.59;;;16.87
72278;BMP280;61204;49.980;8.358;2023-06-14T02:00:35;100305.97;;;16.82
72278;BMP280;61204;49.980;8.358;2023-06-14T02:03:01;100305.13;;;16.77
72278;BMP280;61204;49.980;8.358;2023-06-14T02:05:29;100300.63;;;16.68
72278;BMP280;61204;49.980;8.358;2023-06-14T02:07:59;100310.09;;;16.63
72278;BMP280;61204;49.980;8.358;2023-06-14T02:10:27;100301.78;;;16.63
72278;BMP280;61204;49.980;8.358;2023-06-14T02:12:55;100308.81;;;16.66
72278;BMP280;61204;49.980;8.358;2023-06-14T02:15:23;100311.59;;;16.66
72278;BMP280;61204;49.980;8.358;2023-06-14T02:17:52;100313.94;;;16.56
72278;BMP280;61204;49.980;8.358;2023-06-14T02:20:18;100316.16;;;16.42
72278;BMP280;61204;49.980;8.358;2023-06-14T02:22:46;100320.84;;;16.39
72278;BMP280;61204;49.980;8.358;2023-06-14T02:25:12;100321.25;;;16.31
72278;BMP280;61204;49.980;8.358;2023-06-14T02:27:38;100318.63;;;16.36
72278;BMP280;61204;49.980;8.358;2023-06-14T02:30:06;100316.59;;;16.36
72278;BMP280;61204;49.980;8.358;2023-06-14T02:32:34;100318.03;;;16.37
72278;BMP280;61204;49.980;8.358;2023-06-14T02:35:00;100313.09;;;16.36
72278;BMP280;61204;49.980;8.358;2023-06-14T02:37:26;100317.00;;;16.46
72278;BMP280;61204;49.980;8.358;2023-06-14T02:39:52;100313.94;;;16.56
72278;BMP280;61204;49.980;8.358;2023-06-14T02:42:20;100315.00;;;16.65
72278;BMP280;61204;49.980;8.358;2023-06-14T02:44:45;100314.66;;;16.56
72278;BMP280;61204;49.980;8.358;2023-06-14T02:47:16;100312.06;;;16.60
72278;BMP280;61204;49.980;8.358;2023-06-14T02:49:42;100310.94;;;16.50
72278;BMP280;61204;49.980;8.358;2023-06-14T02:52:08;100308.66;;;16.62
72278;BMP280;61204;49.980;8.358;2023-06-14T02:54:34;100317.94;;;16.69
72278;BMP280;61204;49.980;8.358;2023-06-14T02:56:59;100313.75;;;16.68
72278;BMP280;61204;49.980;8.358;2023-06-14T02:59:27;100315.69;;;16.65
72278;BMP280;61204;49.980;8.358;2023-06-14T03:01:53;100314.03;;;16.58
72278;BMP280;61204;49.980;8.358;2023-06-14T03:04:20;100312.69;;;16.59
72278;BMP280;61204;49.980;8.358;2023-06-14T03:06:46;100314.31;;;16.48
72278;BMP280;61204;49.980;8.358;2023-06-14T03:09:17;100312.13;;;16.45
72278;BMP280;61204;49.980;8.358;2023-06-14T03:11:42;100326.09;;;16.49
72278;BMP280;61204;49.980;8.358;2023-06-14T03:14:08;100321.84;;;16.46
72278;BMP280;61204;49.980;8.358;2023-06-14T03:16:33;100322.56;;;16.46
72278;BMP280;61204;49.980;8.358;2023-06-14T03:19:02;100333.31;;;16.56
72278;BMP280;61204;49.980;8.358;2023-06-14T03:21:28;100334.13;;;16.58
72278;BMP280;61204;49.980;8.358;2023-06-14T03:23:53;100329.22;;;16.57
72278;BMP280;61204;49.980;8.358;2023-06-14T03:26:19;100332.34;;;16.49
72278;BMP280;61204;49.980;8.358;2023-06-14T03:28:45;100337.88;;;16.49
72278;BMP280;61204;49.980;8.358;2023-06-14T03:31:16;100339.22;;;16.64
72278;BMP280;61204;49.980;8.358;2023-06-14T03:33:42;100346.69;;;16.61
72278;BMP280;61204;49.980;8.358;2023-06-14T03:36:08;100351.25;;;16.55
72278;BMP280;61204;49.980;8.358;2023-06-14T03:38:33;100346.00;;;16.61
72278;BMP280;61204;49.980;8.358;2023-06-14T03:40:59;100352.63;;;16.54
72278;BMP280;61204;49.980;8.358;2023-06-14T03:43:25;100350.81;;;16.60
72278;BMP280;61204;49.980;8.358;2023-06-14T03:45:50;100350.28;;;16.64
72278;BMP280;61204;49.980;8.358;2023-06-14T03:48:16;100357.78;;;16.61
72278;BMP280;61204;49.980;8.358;2023-06-14T03:50:42;100357.41;;;16.69
72278;BMP280;61204;49.980;8.358;2023-06-14T03:53:10;100375.59;;;16.74
72278;BMP280;61204;49.980;8.358;2023-06-14T03:55:38;100371.56;;;16.77
72278;BMP280;61204;49.980;8.358;2023-06-14T03:58:04;100370.47;;;16.84
72278;BMP280;61204;49.980;8.358;2023-06-14T04:00:30;100375.72;;;16.94
72278;BMP280;61204;49.980;8.358;2023-06-14T04:02:57;100375.06;;;16.96
72278;BMP280;61204;49.980;8.358;2023-06-14T04:05:22;100374.38;;;16.95
72278;BMP280;61204;49.980;8.358;2023-06-14T04:07:48;100380.59;;;16.96
72278;BMP280;61204;49.980;8.358;2023-06-14T04:10:13;100381.19;;;17.10
72278;BMP280;61204;49.980;8.358;2023-06-14T04:12:41;100377.94;;;17.15
72278;BMP280;61204;49.980;8.358;2023-06-14T04:15:08;100380.81;;;17.35
72278;BMP280;61204;49.980;8.358;2023-06-14T04:17:34;100378.75;;;17.36
72278;BMP280;61204;49.980;8.358;2023-06-14T04:20:00;100384.09;;;17.49
72278;BMP280;61204;49.980;8.358;2023-06-14T04:22:29;100380.88;;;17.55
72278;BMP280;61204;49.980;8.358;2023-06-14T04:24:55;100386.47;;;17.57
72278;BMP280;61204;49.980;8.358;2023-06-14T04:27:22;100382.59;;;17.64
72278;BMP280;61204;49.980;8.358;2023-06-14T04:29:56;100382.16;;;17.72
72278;BMP280;61204;49.980;8.358;2023-06-14T04:32:25;100389.28;;;17.77
72278;BMP280;61204;49.980;8.358;2023-06-14T04:34:53;100378.41;;;17.83
72278;BMP280;61204;49.980;8.358;2023-06-14T04:37:19;100384.94;;;17.92
72278;BMP280;61204;49.980;8.358;2023-06-14T04:39:46;100383.91;;;18.01
72278;BMP280;61204;49.980;8.358;2023-06-14T04:42:18;100393.09;;;18.05
72278;BMP280;61204;49.980;8.358;2023-06-14T04:44:45;100396.22;;;18.16
72278;BMP280;61204;49.980;8.358;2023-06-14T04:47:14;100393.09;;;18.25
72278;BMP280;61204;49.980;8.358;2023-06-14T04:49:41;100398.22;;;18.33
72278;BMP280;61204;49.980;8.358;2023-06-14T04:52:12;100390.22;;;18.43
72278;BMP280;61204;49.980;8.358;2023-06-14T04:54:38;100393.50;;;18.57
72278;BMP280;61204;49.980;8.358;2023-06-14T04:57:07;100392.94;;;18.61
72278;BMP280;61204;49.980;8.358;2023-06-14T04:59:39;100399.53;;;18.71
72278;BMP280;61204;49.980;8.358;2023-06-14T05:02:09;100403.94;;;18.79
72278;BMP280;61204;49.980;8.358;2023-06-14T05:04:38;100413.28;;;18.89
72278;BMP280;61204;49.980;8.358;2023-06-14T05:07:06;100416.97;;;18.96
72278;BMP280;61204;49.980;8.358;2023-06-14T05:09:33;100414.31;;;19.00
72278;BMP280;61204;49.980;8.358;2023-06-14T05:12:00;100418.25;;;19.15
72278;BMP280;61204;49.980;8.358;2023-06-14T05:14:29;100423.34;;;19.22
72278;BMP280;61204;49.980;8.358;2023-06-14T05:16:54;100420.56;;;19.22
72278;BMP280;61204;49.980;8.358;2023-06-14T05:19:20;100418.47;;;19.45
72278;BMP280;61204;49.980;8.358;2023-06-14T05:21:48;100416.38;;;19.43
72278;BMP280;61204;49.980;8.358;2023-06-14T05:24:14;100421.69;;;19.59
72278;BMP280;61204;49.980;8.358;2023-06-14T05:26:40;100422.16;;;19.75
72278;BMP280;61204;49.980;8.358;2023-06-14T05:29:06;100417.66;;;19.88
72278;BMP280;61204;49.980;8.358;2023-06-14T05:31:31;100424.28;;;20.01
72278;BMP280;61204;49.980;8.358;2023-06-14T05:33:57;100419.16;;;20.17
72278;BMP280;61204;49.980;8.358;2023-06-14T05:36:23;100427.06;;;20.01
72278;BMP280;61204;49.980;8.358;2023-06-14T05:38:52;100433.22;;;20.23
72278;BMP280;61204;49.980;8.358;2023-06-14T05:41:24;100440.81;;;20.20
72278;BMP280;61204;49.980;8.358;2023-06-14T05:43:54;100437.50;;;20.26
72278;BMP280;61204;49.980;8.358;2023-06-14T05:46:21;100449.06;;;20.42
72278;BMP280;61204;49.980;8.358;2023-06-14T05:48:49;100450.31;;;20.37
72278;BMP280;61204;49.980;8.358;2023-06-14T05:51:16;100447.41;;;20.33
72278;BMP280;61204;49.980;8.358;2023-06-14T05:53:47;100450.78;;;20.55
72278;BMP280;61204;49.980;8.358;2023-06-14T05:56:16;100452.00;;;20.48
72278;BMP280;61204;49.980;8.358;2023-06-14T05:58:45;100458.81;;;20.69
72278;BMP280;61204;49.980;8.358;2023-06-14T06:01:11;100466.28;;;20.90
72278;BMP280;61204;49.980;8.358;2023-06-14T06:03:38;100459.00;;;21.07
72278;BMP280;61204;49.980;8.358;2023-06-14T06:06:03;100468.03;;;21.36
72278;BMP280;61204;49.980;8.358;2023-06-14T06:08:29;100470.34;;;21.45
72278;BMP280;61204;49.980;8.358;2023-06-14T06:10:56;100478.88;;;21.53
72278;BMP280;61204;49.980;8.358;2023-06-14T06:13:22;100477.19;;;21.40
72278;BMP280;61204;49.980;8.358;2023-06-14T06:15:48;100484.75;;;21.68
72278;BMP280;61204;49.980;8.358;2023-06-14T06:18:13;100494.06;;;21.78
72278;BMP280;61204;49.980;8.358;2023-06-14T06:20:41;100479.78;;;21.62
72278;BMP280;61204;49.980;8.358;2023-06-14T06:23:06;100479.13;;;21.64
72278;BMP280;61204;49.980;8.358;2023-06-14T06:25:32;100482.25;;;22.16
72278;BMP280;61204;49.980;8.358;2023-06-14T06:27:58;100482.78;;;22.08
72278;BMP280;61204;49.980;8.358;2023-06-14T06:30:24;100493.66;;;21.58
72278;BMP280;61204;49.980;8.358;2023-06-14T06:32:52;100499.91;;;21.91
72278;BMP280;61204;49.980;8.358;2023-06-14T06:35:18;100496.69;;;21.70
72278;BMP280;61204;49.980;8.358;2023-06-14T06:37:43;100498.53;;;21.60
72278;BMP280;61204;49.980;8.358;2023-06-14T06:40:09;100504.72;;;21.54
72278;BMP280;61204;49.980;8.358;2023-06-14T06:42:37;100511.34;;;21.71
72278;BMP280;61204;49.980;8.358;2023-06-14T06:45:03;100517.16;;;22.17
72278;BMP280;61204;49.980;8.358;2023-06-14T06:47:30;100504.00;;;22.22
72278;BMP280;61204;49.980;8.358;2023-06-14T06:49:56;100515.00;;;22.51
72278;BMP280;61204;49.980;8.358;2023-06-14T06:52:23;100515.25;;;22.66
72278;BMP280;61204;49.980;8.358;2023-06-14T06:54:49;100515.97;;;22.64
72278;BMP280;61204;49.980;8.358;2023-06-14T06:57:20;100517.41;;;22.67
72278;BMP280;61204;49.980;8.358;2023-06-14T06:59:47;100515.47;;;22.78
72278;BMP280;61204;49.980;8.358;2023-06-14T07:02:13;100527.78;;;23.03
72278;BMP280;61204;49.980;8.358;2023-06-14T07:04:39;100524.56;;;22.76
72278;BMP280;61204;49.980;8.358;2023-06-14T07:07:05;100538.38;;;22.30
72278;BMP280;61204;49.980;8.358;2023-06-14T07:09:30;100529.56;;;22.84
72278;BMP280;61204;49.980;8.358;2023-06-14T07:11:58;100534.75;;;22.60
72278;BMP280;61204;49.980;8.358;2023-06-14T07:14:23;100541.34;;;23.23
72278;BMP280;61204;49.980;8.358;2023-06-14T07:16:49;100526.50;;;22.70
72278;BMP280;61204;49.980;8.358;2023-06-14T07:19:14;100525.00;;;23.51
72278;BMP280;61204;49.980;8.358;2023-06-14T07:21:40;100529.34;;;24.21
72278;BMP280;61204;49.980;8.358;2023-06-14T07:24:06;100536.13;;;24.70
72278;BMP280;61204;49.980;8.358;2023-06-14T07:26:32;100535.84;;;25.34
72278;BMP280;61204;49.980;8.358;2023-06-14T07:28:58;100533.78;;;25.41
72278;BMP280;61204;49.980;8.358;2023-06-14T07:31:24;100539.13;;;24.94
72278;BMP280;61204;49.980;8.358;2023-06-14T07:33:49;100528.84;;;24.40
72278;BMP280;61204;49.980;8.358;2023-06-14T07:36:15;100541.72;;;24.70
72278;BMP280;61204;49.980;8.358;2023-06-14T07:38:40;100541.88;;;24.13
72278;BMP280;61204;49.980;8.358;2023-06-14T07:41:06;100537.28;;;24.46
72278;BMP280;61204;49.980;8.358;2023-06-14T07:43:31;100535.81;;;24.39
72278;BMP280;61204;49.980;8.358;2023-06-14T07:45:57;100534.03;;;24.72
72278;BMP280;61204;49.980;8.358;2023-06-14T07:48:26;100541.75;;;24.72
72278;BMP280;61204;49.980;8.358;2023-06-14T07:50:51;100542.31;;;24.56
72278;BMP280;61204;49.980;8.358;2023-06-14T07:53:17;100546.81;;;24.92
72278;BMP280;61204;49.980;8.358;2023-06-14T07:55:42;100546.34;;;25.24
72278;BMP280;61204;49.980;8.358;2023-06-14T07:58:10;100545.94;;;25.86
72278;BMP280;61204;49.980;8.358;2023-06-14T08:00:35;100539.41;;;25.35
72278;BMP280;61204;49.980;8.358;2023-06-14T08:03:01;100541.09;;;26.15
72278;BMP280;61204;49.980;8.358;2023-06-14T08:05:27;100536.25;;;26.52
72278;BMP280;61204;49.980;8.358;2023-06-14T08:07:54;100538.31;;;26.25
72278;BMP280;61204;49.980;8.358;2023-06-14T08:10:20;100541.88;;;26.70
72278;BMP280;61204;49.980;8.358;2023-06-14T08:12:47;100536.94;;;26.75
72278;BMP280;61204;49.980;8.358;2023-06-14T08:15:16;100546.69;;;27.29
72278;BMP280;61204;49.980;8.358;2023-06-14T08:17:43;100546.03;;;27.14
72278;BMP280;61204;49.980;8.358;2023-06-14T08:20:09;100543.88;;;27.35
72278;BMP280;61204;49.980;8.358;2023-06-14T08:22:35;100541.78;;;27.21
72278;BMP280;61204;49.980;8.358;2023-06-14T08:25:04;100532.44;;;27.77
72278;BMP280;61204;49.980;8.358;2023-06-14T08:27:31;100538.72;;;27.82
72278;BMP280;61204;49.980;8.358;2023-06-14T08:29:57;100539.66;;;27.32
72278;BMP280;61204;49.980;8.358;2023-06-14T08:32:22;100540.38;;;27.24
72278;BMP280;61204;49.980;8.358;2023-06-14T08:34:48;100539.06;;;26.48
72278;BMP280;61204;49.980;8.358;2023-06-14T08:37:16;100525.41;;;27.72
72278;BMP280;61204;49.980;8.358;2023-06-14T08:39:43;100540.97;;;27.57
72278;BMP280;61204;49.980;8.358;2023-06-14T08:42:10;100536.06;;;27.53
72278;BMP280;61204;49.980;8.358;2023-06-14T08:44:37;100543.94;;;26.31
72278;BMP280;61204;49.980;8.358;2023-06-14T08:47:03;100541.56;;;25.48
72278;BMP280;61204;49.980;8.358;2023-06-14T08:49:31;100543.19;;;26.12
72278;BMP280;61204;49.980;8.358;2023-06-14T08:51:58;100545.81;;;27.73
72278;BMP280;61204;49.980;8.358;2023-06-14T08:54:29;100534.44;;;27.93
72278;BMP280;61204;49.980;8.358;2023-06-14T08:57:00;100539.97;;;28.09
72278;BMP280;61204;49.980;8.358;2023-06-14T08:59:29;100540.16;;;27.83
72278;BMP280;61204;49.980;8.358;2023-06-14T09:01:58;100543.44;;;28.16
72278;BMP280;61204;49.980;8.358;2023-06-14T09:04:25;100539.00;;;26.32
72278;BMP280;61204;49.980;8.358;2023-06-14T09:06:54;100543.69;;;27.77
72278;BMP280;61204;49.980;8.358;2023-06-14T09:09:23;100537.50;;;28.58
72278;BMP280;61204;49.980;8.358;2023-06-14T09:11:51;100533.84;;;27.70
72278;BMP280;61204;49.980;8.358;2023-06-14T09:14:18;100532.81;;;28.24
72278;BMP280;61204;49.980;8.358;2023-06-14T09:16:46;100525.78;;;28.23
72278;BMP280;61204;49.980;8.358;2023-06-14T09:19:21;100529.72;;;27.57
72278;BMP280;61204;49.980;8.358;2023-06-14T09:21:50;100534.97;;;28.20
72278;BMP280;61204;49.980;8.358;2023-06-14T09:24:18;100543.47;;;28.14
72278;BMP280;61204;49.980;8.358;2023-06-14T09:26:46;100547.88;;;27.84
72278;BMP280;61204;49.980;8.358;2023-06-14T09:29:12;100538.50;;;28.18
72278;BMP280;61204;49.980;8.358;2023-06-14T09:31:41;100549.09;;;28.95
72278;BMP280;61204;49.980;8.358;2023-06-14T09:34:06;100558.00;;;29.78
72278;BMP280;61204;49.980;8.358;2023-06-14T09:36:34;100553.53;;;29.95
72278;BMP280;61204;49.980;8.358;2023-06-14T09:39:02;100553.41;;;28.90
72278;BMP280;61204;49.980;8.358;2023-06-14T09:41:32;100554.59;;;28.36
72278;BMP280;61204;49.980;8.358;2023-06-14T09:44:03;100561.28;;;29.43
72278;BMP280;61204;49.980;8.358;2023-06-14T09:46:31;100558.81;;;29.13
72278;BMP280;61204;49.980;8.358;2023-06-14T09:48:58;100571.03;;;28.91
72278;BMP280;61204;49.980;8.358;2023-06-14T09:51:27;100570.16;;;29.66
72278;BMP280;61204;49.980;8.358;2023-06-14T09:53:55;100560.25;;;29.69
72278;BMP280;61204;49.980;8.358;2023-06-14T09:56:30;100559.44;;;30.24
72278;BMP280;61204;49.980;8.358;2023-06-14T09:58:59;100556.03;;;29.68
72278;BMP280;61204;49.980;8.358;2023-06-14T10:01:34;100558.94;;;30.54
72278;BMP280;61204;49.980;8.358;2023-06-14T10:04:04;100555.47;;;31.26
72278;BMP280;61204;49.980;8.358;2023-06-14T10:06:31;100555.09;;;31.75
72278;BMP280;61204;49.980;8.358;2023-06-14T10:09:02;100552.13;;;30.39
72278;BMP280;61204;49.980;8.358;2023-06-14T10:11:32;100543.81;;;30.70
72278;BMP280;61204;49.980;8.358;2023-06-14T10:14:00;100551.31;;;29.99
72278;BMP280;61204;49.980;8.358;2023-06-14T10:16:38;100560.91;;;28.41
72278;BMP280;61204;49.980;8.358;2023-06-14T10:19:36;100555.84;;;27.31
72278;BMP280;61204;49.980;8.358;2023-06-14T10:22:24;100557.66;;;27.94
72278;BMP280;61204;49.980;8.358;2023-06-14T10:24:58;100559.00;;;28.11
72278;BMP280;61204;49.980;8.358;2023-06-14T10:27:24;100565.13;;;28.40
72278;BMP280;61204;49.980;8.358;2023-06-14T10:32:18;100553.28;;;28.23
72278;BMP280;61204;49.980;8.358;2023-06-14T10:34:45;100553.97;;;29.03
72278;BMP280;61204;49.980;8.358;2023-06-14T10:37:20;100556.31;;;28.80
72278;BMP280;61204;49.980;8.358;2023-06-14T10:39:46;100556.25;;;28.88
72278;BMP280;61204;49.980;8.358;2023-06-14T10:42:12;100555.00;;;28.69
72278;BMP280;61204;49.980;8.358;2023-06-14T10:52:42;100547.50;;;31.34
72278;BMP280;61204;49.980;8.358;2023-06-14T10:55:14;100554.72;;;30.92
72278;BMP280;61204;49.980;8.358;2023-06-14T10:57:44;100543.91;;;31.03
72278;BMP280;61204;49.980;8.358;2023-06-14T11:00:21;100554.81;;;31.56
72278;BMP280;61204;49.980;8.358;2023-06-14T11:06:15;100553.31;;;32.19
72278;BMP280;61204;49.980;8.358;2023-06-14T11:11:46;100554.81;;;31.21
72278;BMP280;61204;49.980;8.358;2023-06-14T11:14:16;100557.28;;;32.30
72278;BMP280;61204;49.980;8.358;2023-06-14T11:16:42;100552.03;;;32.70
72278;BMP280;61204;49.980;8.358;2023-06-14T11:19:14;100554.72;;;32.74
72278;BMP280;61204;49.980;8.358;2023-06-14T11:21:42;100541.41;;;32.68
72278;BMP280;61204;49.980;8.358;2023-06-14T11:24:11;100543.63;;;32.90
72278;BMP280;61204;49.980;8.358;2023-06-14T11:26:37;100546.34;;;32.16
72278;BMP280;61204;49.980;8.358;2023-06-14T11:29:03;100550.63;;;32.69
72278;BMP280;61204;49.980;8.358;2023-06-14T11:31:31;100546.00;;;33.07
72278;BMP280;61204;49.980;8.358;2023-06-14T11:33:57;100544.09;;;32.47
72278;BMP280;61204;49.980;8.358;2023-06-14T11:36:26;100553.47;;;33.18
72278;BMP280;61204;49.980;8.358;2023-06-14T11:39:02;100542.13;;;33.64
72278;BMP280;61204;49.980;8.358;2023-06-14T11:41:36;100528.81;;;34.23
72278;BMP280;61204;49.980;8.358;2023-06-14T11:44:10;100533.63;;;32.67
72278;BMP280;61204;49.980;8.358;2023-06-14T11:46:37;100530.72;;;33.66
72278;BMP280;61204;49.980;8.358;2023-06-14T11:49:03;100539.19;;;32.46
72278;BMP280;61204;49.980;8.358;2023-06-14T11:51:32;100540.69;;;31.54
72278;BMP280;61204;49.980;8.358;2023-06-14T11:54:00;100533.84;;;32.05
72278;BMP280;61204;49.980;8.358;2023-06-14T11:56:27;100534.63;;;32.57
72278;BMP280;61204;49.980;8.358;2023-06-14T11:58:54;100521.53;;;33.41
72278;BMP280;61204;49.980;8.358;2023-06-14T12:01:22;100533.25;;;33.97
72278;BMP280;61204;49.980;8.358;2023-06-14T12:03:48;100517.53;;;33.54
72278;BMP280;61204;49.980;8.358;2023-06-14T12:06:15;100528.75;;;32.09
72278;BMP280;61204;49.980;8.358;2023-06-14T12:08:50;100527.00;;;31.32
72278;BMP280;61204;49.980;8.358;2023-06-14T12:11:15;100535.00;;;31.21
72278;BMP280;61204;49.980;8.358;2023-06-14T12:13:42;100536.00;;;31.07
72278;BMP280;61204;49.980;8.358;2023-06-14T12:16:09;100541.50;;;29.45
72278;BMP280;61204;49.980;8.358;2023-06-14T12:18:36;100537.53;;;28.52
72278;BMP280;61204;49.980;8.358;2023-06-14T12:21:08;100536.66;;;29.38
72278;BMP280;61204;49.980;8.358;2023-06-14T12:23:47;100530.84;;;29.50
72278;BMP280;61204;49.980;8.358;2023-06-14T12:26:16;100545.81;;;28.73
72278;BMP280;61204;49.980;8.358;2023-06-14T12:28:44;100543.50;;;28.91
72278;BMP280;61204;49.980;8.358;2023-06-14T12:31:12;100541.91;;;29.66
72278;BMP280;61204;49.980;8.358;2023-06-14T12:33:41;100533.06;;;29.92
72278;BMP280;61204;49.980;8.358;2023-06-14T12:36:08;100533.13;;;30.72
72278;BMP280;61204;49.980;8.358;2023-06-14T12:38:35;100536.88;;;31.35
72278;BMP280;61204;49.980;8.358;2023-06-14T12:41:04;100527.41;;;30.77
72278;BMP280;61204;49.980;8.358;2023-06-14T12:43:32;100528.06;;;30.79
72278;BMP280;61204;49.980;8.358;2023-06-14T12:45:58;100538.66;;;31.16
72278;BMP280;61204;49.980;8.358;2023-06-14T12:48:23;100544.19;;;30.87
72278;BMP280;61204;49.980;8.358;2023-06-14T12:50:56;100533.88;;;31.08
72278;BMP280;61204;49.980;8.358;2023-06-14T12:53:24;100531.22;;;30.61
72278;BMP280;61204;49.980;8.358;2023-06-14T12:55:50;100531.34;;;30.12
72278;BMP280;61204;49.980;8.358;2023-06-14T12:58:15;100532.53;;;29.28
72278;BMP280;61204;49.980;8.358;2023-06-14T13:00:47;100545.94;;;27.40
72278;BMP280;61204;49.980;8.358;2023-06-14T13:03:12;100542.41;;;27.50
72278;BMP280;61204;49.980;8.358;2023-06-14T13:05:38;100538.06;;;27.77
72278;BMP280;61204;49.980;8.358;2023-06-14T13:08:06;100541.88;;;28.41
72278;BMP280;61204;49.980;8.358;2023-06-14T13:10:35;100542.63;;;29.09
72278;BMP280;61204;49.980;8.358;2023-06-14T13:13:01;100535.84;;;29.96
72278;BMP280;61204;49.980;8.358;2023-06-14T13:15:27;100548.97;;;30.57
72278;BMP280;61204;49.980;8.358;2023-06-14T13:17:53;100530.03;;;29.00
72278;BMP280;61204;49.980;8.358;2023-06-14T13:20:18;100533.00;;;29.96
72278;BMP280;61204;49.980;8.358;2023-06-14T13:22:46;100527.38;;;30.40
72278;BMP280;61204;49.980;8.358;2023-06-14T13:25:14;100529.28;;;29.04
72278;BMP280;61204;49.980;8.358;2023-06-14T13:27:42;100540.06;;;29.46
72278;BMP280;61204;49.980;8.358;2023-06-14T13:30:07;100534.44;;;28.83
72278;BMP280;61204;49.980;8.358;2023-06-14T13:32:36;100526.97;;;29.20
72278;BMP280;61204;49.980;8.358;2023-06-14T13:35:01;100528.53;;;29.07
72278;BMP280;61204;49.980;8.358;2023-06-14T13:37:29;100538.22;;;28.57
72278;BMP280;61204;49.980;8.358;2023-06-14T13:39:54;100535.38;;;27.49
72278;BMP280;61204;49.980;8.358;2023-06-14T13:42:20;100539.00;;;27.03
72278;BMP280;61204;49.980;8.358;2023-06-14T13:44:45;100534.03;;;27.22
72278;BMP280;61204;49.980;8.358;2023-06-14T13:47:11;100530.41;;;27.62
72278;BMP280;61204;49.980;8.358;2023-06-14T13:49:37;100535.50;;;26.94
72278;BMP280;61204;49.980;8.358;2023-06-14T13:52:05;100535.53;;;26.82
72278;BMP280;61204;49.980;8.358;2023-06-14T13:54:30;100528.50;;;26.67
72278;BMP280;61204;49.980;8.358;2023-06-14T13:56:56;100523.47;;;27.32
72278;BMP280;61204;49.980;8.358;2023-06-14T13:59:21;100527.03;;;27.14
72278;BMP280;61204;49.980;8.358;2023-06-14T14:01:48;100512.81;;;27.53
72278;BMP280;61204;49.980;8.358;2023-06-14T14:04:13;100520.72;;;28.40
72278;BMP280;61204;49.980;8.358;2023-06-14T14:06:39;100519.81;;;27.56
72278;BMP280;61204;49.980;8.358;2023-06-14T14:09:09;100521.25;;;27.55
72278;BMP280;61204;49.980;8.358;2023-06-14T14:11:37;100523.31;;;27.67
72278;BMP280;61204;49.980;8.358;2023-06-14T14:14:04;100524.00;;;27.71
72278;BMP280;61204;49.980;8.358;2023-06-14T14:16:30;100517.94;;;26.98
72278;BMP280;61204;49.980;8.358;2023-06-14T14:18:55;100518.66;;;26.25